Time;durP1;ratioP1;P1;durP2;ratioP2;P2;SDS_P1;SDS_P2;PMS_P1;PMS_P2;Temp;Humidity;BMP_temperature;BMP_pressure;BME280_temperature;BME280_humidity;BME280_pressure;Samples;Min_cycle;Max_cycle;Signal;HPM_P1;HPM_P2
2022/12/05 00:01:28;;;;;;;;;47.00;37.50;;;;;5.23;72.02;101162.00;5105486;27;45459;-66
2022/12/05 00:03:56;;;;;;;;;48.00;33.50;;;;;5.16;71.79;101156.59;5075682;27;45470;-66
2022/12/05 00:06:23;;;;;;;;;36.25;26.75;;;;;5.19;71.58;101162.75;5072851;28;45341;-66
2022/12/05 00:08:49;;;;;;;;;37.00;31.00;;;;;5.19;71.69;101151.47;5106101;27;48230;-66
2022/12/05 00:11:25;;;;;;;;;39.50;33.25;;;;;5.29;72.44;101169.09;5072882;27;45857;-66
2022/12/05 00:13:53;;;;;;;;;48.25;34.50;;;;;5.19;71.81;101172.25;5073542;28;45448;-66
2022/12/05 00:16:22;;;;;;;;;48.00;36.50;;;;;5.09;72.02;101169.38;5072087;27;45609;-66
2022/12/05 00:18:48;;;;;;;;;42.75;34.00;;;;;4.99;71.77;101171.66;5067809;27;45531;-65
2022/12/05 00:21:17;;;;;;;;;46.00;36.00;;;;;4.94;72.91;101176.69;5065336;28;45531;-65
2022/12/05 00:23:43;;;;;;;;;46.25;35.25;;;;;4.93;72.57;101177.50;5071957;28;45504;-65
2022/12/05 00:26:10;;;;;;;;;46.25;34.00;;;;;4.86;72.84;101167.75;5072343;28;45481;-66
2022/12/05 00:28:36;;;;;;;;;36.50;31.50;;;;;4.92;72.88;101173.16;5072500;28;46154;-66
2022/12/05 00:31:09;;;;;;;;;39.75;33.00;;;;;4.97;72.32;101171.59;5079883;28;45328;-66
2022/12/05 00:33:35;;;;;;;;;45.00;34.25;;;;;4.97;72.39;101173.31;5107672;27;45444;-66
2022/12/05 00:36:09;;;;;;;;;48.00;35.25;;;;;4.91;72.30;101173.09;5076348;28;45341;-65
2022/12/05 00:38:36;;;;;;;;;48.25;34.25;;;;;4.93;72.59;101187.00;5076016;28;46323;-66
2022/12/05 00:41:08;;;;;;;;;46.75;36.00;;;;;4.89;72.79;101179.13;5074332;27;45369;-66
2022/12/05 00:43:34;;;;;;;;;45.50;33.50;;;;;4.93;72.54;101171.44;5079718;28;45423;-66
2022/12/05 00:46:01;;;;;;;;;40.50;30.75;;;;;4.98;72.01;101167.28;5074447;28;45838;-66
2022/12/05 00:48:27;;;;;;;;;46.25;34.50;;;;;5.07;72.06;101170.16;5075482;27;46325;-66
2022/12/05 00:51:00;;;;;;;;;37.00;31.00;;;;;5.09;72.52;101177.16;5074700;28;45455;-66
2022/12/05 00:53:26;;;;;;;;;42.00;31.75;;;;;5.09;72.47;101171.09;5074788;28;45318;-66
2022/12/05 00:55:51;;;;;;;;;38.25;31.75;;;;;5.20;71.87;101174.03;5074790;28;45760;-66
2022/12/05 00:58:17;;;;;;;;;40.50;34.00;;;;;5.13;71.94;101166.88;5079584;28;45513;-66
2022/12/05 01:00:43;;;;;;;;;41.75;31.00;;;;;5.21;71.69;101192.25;5077808;28;45410;-65
2022/12/05 01:03:08;;;;;;;;;42.75;33.75;;;;;5.18;71.35;101181.75;5073384;28;45740;-66
2022/12/05 01:05:34;;;;;;;;;33.25;30.00;;;;;5.22;71.25;101185.31;5075847;28;45476;-65
2022/12/05 01:08:00;;;;;;;;;42.75;31.50;;;;;5.26;71.00;101187.19;5074035;28;46824;-65
2022/12/05 01:10:25;;;;;;;;;33.75;28.50;;;;;5.25;71.43;101172.47;5075913;28;46000;-66
2022/12/05 01:12:51;;;;;;;;;35.75;30.75;;;;;5.35;71.56;101195.28;5076276;28;45760;-66
2022/12/05 01:15:16;;;;;;;;;32.50;28.00;;;;;5.36;70.75;101194.41;5075829;27;45899;-66
2022/12/05 01:17:42;;;;;;;;;46.25;33.00;;;;;5.34;71.12;101197.81;5074867;28;45952;-65
2022/12/05 01:20:08;;;;;;;;;37.00;32.75;;;;;5.27;70.67;101205.44;5074135;28;45449;-65
2022/12/05 01:22:33;;;;;;;;;38.25;32.50;;;;;5.35;70.30;101215.19;5078520;27;45391;-66
2022/12/05 01:24:59;;;;;;;;;46.00;31.75;;;;;5.36;70.72;101214.31;5078823;28;45259;-65
2022/12/05 01:27:24;;;;;;;;;37.75;31.75;;;;;5.36;70.87;101209.13;5079367;28;45878;-66
2022/12/05 01:29:50;;;;;;;;;37.75;31.00;;;;;5.39;70.58;101215.31;5079898;28;45231;-64
2022/12/05 01:32:15;;;;;;;;;44.50;34.75;;;;;5.35;70.53;101209.97;5079585;28;45470;-65
2022/12/05 01:34:41;;;;;;;;;36.25;29.50;;;;;5.41;70.47;101226.63;5078269;28;45311;-65
2022/12/05 01:37:06;;;;;;;;;38.25;33.00;;;;;5.34;70.31;101211.69;5073138;28;45853;-65
2022/12/05 01:39:32;;;;;;;;;39.25;32.75;;;;;5.40;70.40;101222.25;5077358;27;45452;-65
2022/12/05 01:41:58;;;;;;;;;43.25;34.25;;;;;5.42;70.85;101231.00;5078268;28;45463;-65
2022/12/05 01:44:23;;;;;;;;;40.75;32.25;;;;;5.45;70.42;101238.88;5079565;27;45528;-64
2022/12/05 01:46:50;;;;;;;;;42.75;30.75;;;;;5.38;71.34;101244.72;5076608;28;46847;-66
2022/12/05 01:49:26;;;;;;;;;41.50;32.75;;;;;5.27;71.62;101238.31;5075358;27;45794;-66
2022/12/05 01:51:56;;;;;;;;;45.00;36.50;;;;;5.20;71.76;101251.94;5075628;28;45480;-65
2022/12/05 01:54:23;;;;;;;;;44.00;33.25;;;;;5.09;71.77;101246.38;5077808;28;45489;-65
2022/12/05 01:56:58;;;;;;;;;42.50;33.25;;;;;5.13;71.29;101268.16;5067108;27;47390;-65
2022/12/05 01:59:25;;;;;;;;;41.75;32.50;;;;;4.99;72.28;101267.69;5064643;27;45713;-66
2022/12/05 02:01:51;;;;;;;;;48.25;34.50;;;;;5.02;72.15;101268.66;5054587;28;45410;-66
2022/12/05 02:04:17;;;;;;;;;43.50;33.50;;;;;4.88;72.25;101249.16;5053895;28;46810;-67
2022/12/05 02:06:43;;;;;;;;;42.75;32.50;;;;;5.08;72.35;101281.88;5056890;27;45757;-66
2022/12/05 02:09:08;;;;;;;;;43.50;34.75;;;;;5.13;71.98;101275.94;5064271;27;45527;-66
2022/12/05 02:11:40;;;;;;;;;44.25;35.25;;;;;5.12;71.90;101268.97;5059013;27;45418;-66
2022/12/05 02:14:19;;;;;;;;;42.75;33.50;;;;;5.08;71.16;101255.91;5054992;27;45723;-66
2022/12/05 02:16:58;;;;;;;;;34.00;32.50;;;;;5.19;71.43;101268.34;5054479;27;45504;-66
2022/12/05 02:19:29;;;;;;;;;39.75;31.00;;;;;5.22;71.26;101258.94;5067811;27;45818;-66
2022/12/05 02:22:21;;;;;;;;;42.25;34.00;;;;;5.24;71.33;101262.47;5078018;28;45365;-66
2022/12/05 02:25:04;;;;;;;;;40.75;32.75;;;;;5.27;71.09;101262.56;5057555;28;45726;-66
2022/12/05 02:27:45;;;;;;;;;48.75;33.75;;;;;5.21;71.22;101259.75;5072594;28;45801;-66
2022/12/05 02:30:18;;;;;;;;;39.50;33.50;;;;;5.29;70.75;101266.09;5079026;28;45393;-66
2022/12/05 02:33:15;;;;;;;;;36.25;31.50;;;;;5.31;70.63;101260.94;5079092;28;45365;-65
2022/12/05 02:36:08;;;;;;;;;46.00;33.00;;;;;5.34;70.53;101274.03;5072741;28;45567;-65
2022/12/05 02:38:52;;;;;;;;;35.75;31.75;;;;;5.35;70.65;101270.59;5069168;28;46104;-66
2022/12/05 02:41:25;;;;;;;;;41.25;35.75;;;;;5.26;70.78;101268.56;5074681;28;45952;-67
2022/12/05 02:44:04;;;;;;;;;47.75;35.00;;;;;5.23;70.70;101262.41;5078408;28;45704;-67
2022/12/05 02:46:33;;;;;;;;;40.75;31.75;;;;;5.23;71.00;101265.03;5061971;28;45442;-66
2022/12/05 02:49:04;;;;;;;;;45.75;34.00;;;;;5.26;70.45;101263.38;5068728;28;48209;-67
2022/12/05 02:51:38;;;;;;;;;49.00;36.50;;;;;5.21;71.04;101257.16;5070388;28;45490;-66
2022/12/05 02:54:09;;;;;;;;;43.50;34.00;;;;;5.24;70.32;101261.56;5075658;28;45279;-68
2022/12/05 02:56:36;;;;;;;;;45.75;37.25;;;;;5.26;70.50;101265.97;5064865;28;45488;-68
2022/12/05 02:59:02;;;;;;;;;45.25;35.00;;;;;5.27;70.62;101274.69;5060135;28;46117;-66
2022/12/05 03:01:30;;;;;;;;;44.25;36.50;;;;;5.24;70.69;101270.28;5074376;28;45493;-67
2022/12/05 03:03:58;;;;;;;;;51.00;38.00;;;;;5.24;70.52;101259.88;5074675;28;45387;-67
2022/12/05 03:06:32;;;;;;;;;51.75;39.00;;;;;5.20;70.79;101258.00;5074089;28;45598;-67
2022/12/05 03:09:05;;;;;;;;;45.25;35.75;;;;;5.28;70.64;101268.63;5077784;28;46258;-67
2022/12/05 03:11:44;;;;;;;;;49.50;37.75;;;;;5.26;70.69;101267.69;5077305;28;45567;-66
2022/12/05 03:14:20;;;;;;;;;51.75;39.75;;;;;5.26;71.06;101265.09;5077203;27;45507;-66
2022/12/05 03:16:52;;;;;;;;;47.00;35.75;;;;;5.21;70.80;101253.69;5072440;28;45527;-66
2022/12/05 03:19:25;;;;;;;;;50.75;41.00;;;;;5.22;70.85;101265.84;5075647;27;46032;-67
2022/12/05 03:22:01;;;;;;;;;53.75;41.75;;;;;5.28;71.07;101273.84;5076425;28;45440;-67
2022/12/05 03:24:27;;;;;;;;;50.50;40.00;;;;;5.28;70.45;101273.84;5059239;28;45629;-67
2022/12/05 03:27:05;;;;;;;;;49.75;39.50;;;;;5.32;70.54;101278.31;5072297;28;45983;-67
2022/12/05 03:29:37;;;;;;;;;48.50;37.50;;;;;5.25;70.74;101269.44;5073056;27;46225;-67
2022/12/05 03:32:25;;;;;;;;;47.50;36.00;;;;;5.30;70.97;101279.97;5073875;27;45426;-67
2022/12/05 03:35:28;;;;;;;;;48.75;37.75;;;;;5.30;70.67;101274.78;5073516;28;45580;-67
2022/12/05 03:38:01;;;;;;;;;54.00;41.50;;;;;5.28;70.27;101268.63;5073286;28;45477;-66
2022/12/05 03:40:52;;;;;;;;;49.25;37.50;;;;;5.29;70.28;101278.19;5073674;27;45773;-66
2022/12/05 03:43:18;;;;;;;;;47.25;36.00;;;;;5.26;70.60;101284.16;5072736;28;45387;-66
2022/12/05 03:45:49;;;;;;;;;50.50;39.50;;;;;5.24;70.87;101280.66;5078242;27;45590;-68
2022/12/05 03:48:33;;;;;;;;;47.00;36.75;;;;;5.05;71.12;101266.19;5074080;28;45401;-67
2022/12/05 03:51:02;;;;;;;;;49.00;36.25;;;;;5.14;70.91;101282.91;5073408;27;45589;-67
2022/12/05 03:53:33;;;;;;;;;44.00;35.75;;;;;5.19;70.65;101299.50;5072209;28;45611;-67
2022/12/05 03:56:09;;;;;;;;;49.00;37.75;;;;;5.20;70.55;101293.50;5073061;28;45437;-68
2022/12/05 03:59:17;;;;;;;;;47.50;37.00;;;;;5.21;70.71;101301.31;5058958;28;45538;-67
2022/12/05 04:01:45;;;;;;;;;48.75;37.25;;;;;5.08;70.88;101275.78;5066691;27;46332;-67
2022/12/05 04:04:19;;;;;;;;;52.00;40.00;;;;;5.25;70.41;101307.50;5078740;28;45341;-67
2022/12/05 04:06:49;;;;;;;;;45.00;37.75;;;;;5.26;70.21;101315.31;5075641;28;45492;-67
2022/12/05 04:09:22;;;;;;;;;50.75;37.50;;;;;5.26;70.41;101312.72;5079543;28;45449;-67
2022/12/05 04:11:54;;;;;;;;;47.75;37.75;;;;;5.20;70.20;101307.34;5080522;27;45464;-67
2022/12/05 04:14:47;;;;;;;;;47.25;36.75;;;;;5.24;70.30;101322.22;5079633;28;45492;-67
2022/12/05 04:17:52;;;;;;;;;46.50;37.00;;;;;5.11;70.72;101301.84;5094443;27;45425;-67
2022/12/05 04:23:09;;;;;;;;;45.75;38.50;;;;;5.18;70.08;101306.41;5076053;28;45757;-67
2022/12/05 04:26:10;;;;;;;;;49.75;39.25;;;;;5.20;70.26;101315.16;5076778;28;45877;-68
2022/12/05 04:28:43;;;;;;;;;41.25;34.75;;;;;5.13;69.92;101302.78;5079033;27;45455;-68
2022/12/05 04:31:09;;;;;;;;;46.25;36.00;;;;;5.16;70.44;101312.41;5075517;27;45662;-66
2022/12/05 04:33:43;;;;;;;;;52.25;40.50;;;;;5.13;71.03;101312.31;5075809;27;45812;-67
2022/12/05 04:36:29;;;;;;;;;48.50;38.50;;;;;5.14;70.02;101314.94;5076500;27;45578;-66
2022/12/05 04:39:07;;;;;;;;;48.25;36.75;;;;;5.19;70.39;101328.06;5076623;28;45297;-66
2022/12/05 04:41:39;;;;;;;;;46.50;34.25;;;;;5.19;70.11;101328.06;5066229;28;45580;-66
2022/12/05 04:44:14;;;;;;;;;43.75;34.50;;;;;5.14;70.59;101314.06;5111411;27;47230;-66
2022/12/05 04:46:43;;;;;;;;;45.25;35.75;;;;;5.22;70.42;101323.88;5075590;27;45342;-67
2022/12/05 04:49:13;;;;;;;;;47.75;36.75;;;;;5.20;70.06;101316.88;5071409;28;45776;-67
2022/12/05 04:51:41;;;;;;;;;45.00;35.50;;;;;5.24;70.49;101335.19;5075924;28;45517;-66
2022/12/05 04:54:21;;;;;;;;;46.25;36.75;;;;;5.23;70.35;101327.34;5075944;27;46082;-68
2022/12/05 04:56:51;;;;;;;;;50.50;37.00;;;;;5.24;70.24;101334.28;5072869;27;45649;-67
2022/12/05 04:59:17;;;;;;;;;53.00;41.00;;;;;5.20;70.13;101335.94;5065803;28;45381;-67
2022/12/05 05:01:52;;;;;;;;;49.25;37.00;;;;;5.26;70.48;101341.31;5074312;28;45708;-67
2022/12/05 05:04:26;;;;;;;;;48.50;39.25;;;;;5.18;69.77;101334.97;5075379;28;45587;-67
2022/12/05 05:06:52;;;;;;;;;46.25;34.75;;;;;5.22;69.88;101343.75;5076352;27;45523;-67
2022/12/05 05:09:17;;;;;;;;;45.75;35.50;;;;;5.21;70.02;101339.41;5076250;28;45648;-67
2022/12/05 05:11:43;;;;;;;;;45.00;36.00;;;;;5.09;69.88;101314.78;5078415;28;45429;-67
2022/12/05 05:14:09;;;;;;;;;46.50;36.00;;;;;5.19;69.79;101330.66;5078270;28;45457;-67
2022/12/05 05:16:37;;;;;;;;;47.25;36.00;;;;;5.17;70.68;101337.50;5078659;28;45496;-67
2022/12/05 05:19:04;;;;;;;;;45.25;34.00;;;;;5.25;70.29;101349.06;5074133;28;45839;-67
2022/12/05 05:21:38;;;;;;;;;49.00;36.00;;;;;5.26;70.33;101353.41;5075493;28;45661;-67
2022/12/05 05:24:05;;;;;;;;;44.75;34.00;;;;;5.21;69.80;101332.47;5077293;28;45758;-68
2022/12/05 05:26:34;;;;;;;;;43.50;36.25;;;;;5.22;69.95;101351.53;5078464;28;45511;-67
2022/12/05 05:28:59;;;;;;;;;45.75;37.00;;;;;5.26;70.10;101358.59;5076795;27;45515;-68
2022/12/05 05:31:25;;;;;;;;;48.25;36.75;;;;;5.25;69.63;101352.53;5079415;28;45508;-68
2022/12/05 05:33:54;;;;;;;;;45.00;35.50;;;;;5.27;69.94;101363.00;5077891;27;45538;-66
2022/12/05 05:36:22;;;;;;;;;45.75;36.75;;;;;5.21;69.87;101349.78;5076157;28;45401;-68
2022/12/05 05:38:50;;;;;;;;;45.00;33.25;;;;;5.27;69.61;101355.19;5074862;28;45551;-66
2022/12/05 05:41:20;;;;;;;;;43.00;32.50;;;;;5.27;69.55;101361.25;5074931;27;45498;-68
2022/12/05 05:43:46;;;;;;;;;43.25;34.00;;;;;5.22;69.50;101348.94;5076713;28;47815;-67
2022/12/05 05:46:13;;;;;;;;;43.00;33.75;;;;;5.21;70.12;101352.38;5075166;28;45377;-68
2022/12/05 05:48:39;;;;;;;;;46.00;34.50;;;;;5.23;69.75;101362.00;5074844;28;45725;-67
2022/12/05 05:51:06;;;;;;;;;43.50;34.75;;;;;5.27;69.74;101371.66;5074825;27;45655;-67
2022/12/05 05:53:32;;;;;;;;;39.25;33.25;;;;;5.26;69.96;101372.47;5077176;28;45520;-67
2022/12/05 05:56:02;;;;;;;;;36.00;29.75;;;;;5.23;70.37;101372.38;5077787;27;45625;-66
2022/12/05 05:58:28;;;;;;;;;44.25;35.00;;;;;5.25;69.64;101372.44;5077797;28;45396;-66
2022/12/05 06:00:53;;;;;;;;;45.00;32.75;;;;;5.27;69.65;101382.03;5077891;27;45616;-67
2022/12/05 06:03:19;;;;;;;;;39.00;30.50;;;;;5.22;70.34;101373.22;5078706;27;46552;-66
2022/12/05 06:05:44;;;;;;;;;33.75;30.00;;;;;5.29;69.85;101389.88;5076829;28;45771;-66
2022/12/05 06:08:10;;;;;;;;;34.75;30.75;;;;;5.27;70.32;101396.75;5073069;28;45398;-66
2022/12/05 06:10:37;;;;;;;;;40.25;31.75;;;;;5.18;70.52;101383.44;5078453;28;45396;-66
2022/12/05 06:13:03;;;;;;;;;33.75;30.75;;;;;5.05;71.12;101379.53;5074647;27;46183;-66
2022/12/05 06:15:29;;;;;;;;;41.50;30.75;;;;;5.10;70.89;101391.84;5073878;28;45507;-66
2022/12/05 06:17:55;;;;;;;;;38.00;32.25;;;;;5.16;70.39;101396.38;5076119;28;45473;-66
2022/12/05 06:20:21;;;;;;;;;36.50;29.25;;;;;5.16;70.48;101393.78;5073723;27;45496;-67
2022/12/05 06:22:46;;;;;;;;;38.00;30.00;;;;;5.12;70.19;101391.00;5074319;28;45625;-67
2022/12/05 06:25:12;;;;;;;;;35.75;30.75;;;;;5.12;70.19;101391.91;5076569;27;45392;-67
2022/12/05 06:27:37;;;;;;;;;36.50;30.75;;;;;5.19;69.67;101403.38;5076023;28;45609;-66
2022/12/05 06:30:04;;;;;;;;;37.75;30.75;;;;;5.14;69.56;101389.34;5079321;27;45317;-67
2022/12/05 06:32:30;;;;;;;;;33.00;29.25;;;;;5.21;69.97;101404.31;5076604;27;45412;-66
2022/12/05 06:34:55;;;;;;;;;37.75;33.00;;;;;5.23;69.94;101413.06;5074586;28;45709;-68
2022/12/05 06:37:21;;;;;;;;;44.00;33.75;;;;;5.15;70.21;101407.59;5074964;28;45400;-67
2022/12/05 06:39:46;;;;;;;;;46.75;33.25;;;;;5.02;70.53;101416.66;5076411;27;45589;-68
2022/12/05 06:42:12;;;;;;;;;40.75;34.00;;;;;5.07;70.93;101420.28;5073311;28;47673;-67
2022/12/05 06:44:38;;;;;;;;;39.75;30.50;;;;;5.08;70.06;101421.19;5075074;28;45546;-68
2022/12/05 06:47:03;;;;;;;;;39.75;33.50;;;;;5.01;70.41;101414.03;5078244;28;45563;-68
2022/12/05 06:49:31;;;;;;;;;46.25;35.25;;;;;4.98;70.88;101414.78;5076301;27;45476;-67
2022/12/05 06:52:00;;;;;;;;;32.25;29.25;;;;;5.10;70.88;101435.09;5072947;28;47637;-66
2022/12/05 06:54:26;;;;;;;;;34.75;24.50;;;;;5.03;70.11;101418.44;5073695;27;45476;-66
2022/12/05 06:56:51;;;;;;;;;28.75;26.25;;;;;5.07;70.17;101419.41;5073626;28;45360;-67
2022/12/05 06:59:17;;;;;;;;;39.75;30.00;;;;;5.17;70.57;101431.88;5077451;28;45487;-65
2022/12/05 07:01:45;;;;;;;;;37.25;30.00;;;;;5.17;70.92;101431.88;5076438;28;45634;-67
2022/12/05 07:04:14;;;;;;;;;41.00;32.00;;;;;5.19;70.50;101443.22;5072709;28;45402;-66
2022/12/05 07:06:42;;;;;;;;;42.00;34.00;;;;;5.16;70.49;101442.25;5073221;28;45497;-67
2022/12/05 07:09:09;;;;;;;;;45.00;34.75;;;;;5.10;71.36;101451.59;5072701;28;45959;-67
2022/12/05 07:11:35;;;;;;;;;45.00;32.75;;;;;4.93;71.57;101438.81;5073221;28;47622;-67
2022/12/05 07:14:02;;;;;;;;;42.00;33.75;;;;;5.01;71.12;101464.22;5088995;27;45410;-67
2022/12/05 07:16:27;;;;;;;;;43.50;34.75;;;;;4.96;71.16;101458.00;5068745;28;45575;-66
2022/12/05 07:18:53;;;;;;;;;48.25;34.00;;;;;5.02;70.72;101459.91;5072172;27;45738;-66
2022/12/05 07:21:20;;;;;;;;;42.50;30.50;;;;;5.06;71.50;101460.09;5072845;28;45408;-67
2022/12/05 07:23:48;;;;;;;;;40.25;33.00;;;;;5.07;70.57;101460.97;5075709;28;45467;-66
2022/12/05 07:26:17;;;;;;;;;36.00;29.50;;;;;5.08;70.37;101452.38;5072602;28;45484;-66
2022/12/05 07:28:43;;;;;;;;;32.25;28.00;;;;;5.07;70.10;101456.66;5075536;28;45762;-67
2022/12/05 07:31:16;;;;;;;;;38.25;31.50;;;;;5.15;70.44;101464.72;5075588;27;46767;-67
2022/12/05 07:33:42;;;;;;;;;34.50;29.50;;;;;5.15;69.70;101463.81;5072134;27;45476;-67
2022/12/05 07:36:10;;;;;;;;;35.25;30.50;;;;;5.08;70.25;101453.25;5075318;28;45297;-68
2022/12/05 07:38:36;;;;;;;;;31.75;29.75;;;;;5.18;69.88;101474.34;5077928;28;45487;-67
2022/12/05 07:41:07;;;;;;;;;29.25;26.50;;;;;5.22;69.01;101484.91;5077619;28;45703;-67
2022/12/05 07:43:32;;;;;;;;;38.00;31.00;;;;;5.22;69.26;101486.59;5111154;27;46097;-68
2022/12/05 07:46:03;;;;;;;;;31.00;24.50;;;;;5.20;69.38;101483.06;5075799;28;45406;-67
2022/12/05 07:48:31;;;;;;;;;27.25;26.00;;;;;5.01;68.96;101456.44;5073622;27;45802;-67
2022/12/05 07:51:01;;;;;;;;;35.00;29.75;;;;;5.20;69.48;101489.16;5072291;28;45895;-67
2022/12/05 07:53:30;;;;;;;;;32.25;30.00;;;;;5.24;69.22;101498.81;5072670;27;45522;-67
2022/12/05 07:55:58;;;;;;;;;37.25;30.75;;;;;5.20;69.16;101488.28;5073037;28;45413;-66
2022/12/05 07:58:24;;;;;;;;;34.50;28.25;;;;;5.08;69.91;101492.19;5057537;28;45402;-68
2022/12/05 08:00:49;;;;;;;;;29.00;28.75;;;;;4.98;70.50;101492.66;5077431;28;46203;-67
2022/12/05 08:03:15;;;;;;;;;38.25;30.50;;;;;5.05;70.52;101504.16;5076113;27;45434;-67
2022/12/05 08:05:40;;;;;;;;;36.50;27.00;;;;;5.07;70.09;101500.78;5077617;27;45517;-67
2022/12/05 08:08:06;;;;;;;;;33.50;25.50;;;;;5.10;70.08;101500.91;5077725;27;45434;-67
2022/12/05 08:10:33;;;;;;;;;32.25;27.00;;;;;5.14;69.81;101514.00;5074899;27;46513;-68
2022/12/05 08:12:58;;;;;;;;;29.25;25.75;;;;;5.12;70.02;101515.66;5072270;27;46068;-67
2022/12/05 08:15:24;;;;;;;;;37.75;29.00;;;;;4.91;70.82;101498.44;5072830;27;45670;-67
2022/12/05 08:17:49;;;;;;;;;37.25;28.75;;;;;4.88;71.47;101513.91;5073438;27;45500;-67
2022/12/05 08:20:15;;;;;;;;;32.50;29.25;;;;;4.89;71.88;101507.91;5072758;28;45407;-67
2022/12/05 08:22:41;;;;;;;;;35.00;29.25;;;;;5.00;71.21;101523.88;5076385;28;45484;-66
2022/12/05 08:25:06;;;;;;;;;40.75;28.25;;;;;4.98;70.74;101512.53;5071531;28;45642;-66
2022/12/05 08:27:32;;;;;;;;;38.00;30.00;;;;;5.10;70.30;101529.47;5072862;27;45456;-67
2022/12/05 08:29:58;;;;;;;;;33.25;30.00;;;;;5.15;69.98;101531.34;5072608;27;46343;-66
2022/12/05 08:32:23;;;;;;;;;41.00;32.25;;;;;5.14;70.01;101522.69;5072404;28;45484;-66
2022/12/05 08:34:49;;;;;;;;;37.50;29.50;;;;;5.18;70.01;101521.09;5072752;27;45611;-67
2022/12/05 08:37:14;;;;;;;;;37.25;31.75;;;;;5.16;69.64;101513.22;5074066;28;45630;-66
2022/12/05 08:39:40;;;;;;;;;35.50;30.75;;;;;5.21;69.98;101521.19;5074857;28;45609;-67
2022/12/05 08:42:05;;;;;;;;;38.75;31.00;;;;;5.17;69.55;101512.38;5072837;27;45890;-67
2022/12/05 08:44:31;;;;;;;;;39.00;30.50;;;;;5.25;69.54;101523.09;5071546;27;45829;-67
2022/12/05 08:46:56;;;;;;;;;40.75;34.00;;;;;5.25;69.90;101525.69;5105414;27;45470;-65
2022/12/05 08:49:22;;;;;;;;;41.25;32.00;;;;;5.32;69.42;101531.13;5072820;28;46535;-66
2022/12/05 08:51:48;;;;;;;;;38.50;31.50;;;;;5.30;69.35;101521.53;5075334;28;45460;-67
2022/12/05 08:54:14;;;;;;;;;38.75;32.25;;;;;5.34;69.16;101528.63;5063588;27;45306;-66
2022/12/05 08:56:40;;;;;;;;;39.75;31.25;;;;;5.35;69.69;101532.09;5067157;27;45451;-67
2022/12/05 08:59:06;;;;;;;;;41.25;32.75;;;;;5.32;69.78;101522.47;5076149;27;47583;-66
2022/12/05 09:01:35;;;;;;;;;41.25;30.50;;;;;5.35;69.74;101539.88;5077521;27;45280;-67
2022/12/05 09:04:03;;;;;;;;;37.25;30.75;;;;;5.34;70.11;101541.59;5055842;27;45536;-67
2022/12/05 09:06:29;;;;;;;;;44.50;34.00;;;;;5.36;69.94;101547.72;5088361;27;45552;-66
2022/12/05 09:08:59;;;;;;;;;44.00;33.25;;;;;5.38;69.48;101558.16;5072072;27;46002;-66
2022/12/05 09:11:32;;;;;;;;;37.25;32.50;;;;;5.35;69.34;101548.56;5074564;27;45467;-66
2022/12/05 09:13:58;;;;;;;;;42.75;33.00;;;;;5.31;70.24;101544.06;5066663;27;45848;-67
2022/12/05 09:16:30;;;;;;;;;44.50;33.25;;;;;5.28;69.68;101538.75;5063423;27;45511;-66
2022/12/05 09:18:57;;;;;;;;;42.75;34.50;;;;;5.34;69.56;101557.19;5061242;27;45945;-67
2022/12/05 09:21:30;;;;;;;;;42.25;32.25;;;;;5.33;69.99;101550.19;5066384;27;45756;-66
2022/12/05 09:23:58;;;;;;;;;45.50;34.25;;;;;5.37;69.83;101554.69;5068058;27;45856;-67
2022/12/05 09:26:26;;;;;;;;;48.25;37.25;;;;;5.39;69.84;101558.22;5069027;27;45539;-67
2022/12/05 09:28:52;;;;;;;;;50.00;37.00;;;;;5.36;69.70;101550.31;5071699;27;45618;-67
2022/12/05 09:31:23;;;;;;;;;39.50;31.00;;;;;5.39;69.91;101562.56;5068897;27;45925;-67
2022/12/05 09:33:50;;;;;;;;;46.75;37.25;;;;;5.31;69.88;101544.97;5071368;27;45926;-66
2022/12/05 09:36:18;;;;;;;;;50.00;38.50;;;;;5.38;69.21;101559.03;5068499;27;45799;-67
2022/12/05 09:38:44;;;;;;;;;46.25;36.50;;;;;5.35;69.87;101558.94;5062973;27;45358;-67
2022/12/05 09:44:29;;;;;;;;;50.50;39.25;;;;;5.29;69.35;101564.81;5074894;27;45471;-65
2022/12/05 09:47:02;;;;;;;;;48.25;38.25;;;;;5.31;69.75;101568.34;5075741;27;45606;-67
2022/12/05 09:49:29;;;;;;;;;48.00;37.00;;;;;5.00;69.82;101536.84;5070694;27;46861;-67
2022/12/05 09:51:57;;;;;;;;;52.50;40.00;;;;;5.01;71.45;101580.19;5071796;27;45527;-66
2022/12/05 09:54:24;;;;;;;;;48.50;36.50;;;;;4.93;71.47;101582.47;5069851;27;45352;-67
2022/12/05 09:56:52;;;;;;;;;50.25;38.00;;;;;5.02;70.53;101585.41;5070622;27;45882;-66
2022/12/05 09:59:19;;;;;;;;;48.25;37.25;;;;;4.96;70.36;101554.06;5071424;27;47663;-66
2022/12/05 10:02:25;;;;;;;;;45.75;37.50;;;;;5.18;70.35;101586.03;5059937;27;45819;-66
2022/12/05 10:05:03;;;;;;;;;40.25;34.00;;;;;5.22;69.63;101574.88;5066113;27;46651;-66
2022/12/05 10:07:50;;;;;;;;;50.25;35.75;;;;;5.34;69.57;101588.34;5087381;27;45558;-67
2022/12/05 10:10:31;;;;;;;;;43.25;33.50;;;;;5.37;68.85;101585.00;5068866;27;46180;-67
2022/12/05 10:13:33;;;;;;;;;37.50;33.25;;;;;5.39;68.88;101581.63;5069365;27;45716;-67
2022/12/05 10:16:09;;;;;;;;;41.00;33.25;;;;;5.41;69.01;101590.34;5071424;27;45428;-67
2022/12/05 10:18:44;;;;;;;;;39.25;33.00;;;;;5.44;68.91;101590.47;5070846;27;45403;-67
2022/12/05 10:21:27;;;;;;;;;46.50;36.75;;;;;5.38;69.50;101587.63;5069829;27;45670;-67
2022/12/05 10:24:14;;;;;;;;;50.50;41.75;;;;;5.39;68.99;101594.59;5067973;28;45693;-68
2022/12/05 10:26:47;;;;;;;;;51.00;40.75;;;;;5.31;69.58;101593.41;5069691;28;46209;-67
2022/12/05 10:29:16;;;;;;;;;55.00;41.50;;;;;5.10;70.36;101601.28;5071339;27;45483;-67
2022/12/05 10:31:45;;;;;;;;;53.25;38.25;;;;;5.12;70.59;101596.16;5067564;28;45437;-66
2022/12/05 10:34:22;;;;;;;;;43.00;35.50;;;;;5.17;70.55;101594.63;5064268;27;45342;-67
2022/12/05 10:37:00;;;;;;;;;48.75;39.50;;;;;5.19;69.62;101593.84;5065126;27;45775;-66
2022/12/05 10:39:26;;;;;;;;;39.75;34.25;;;;;5.26;69.86;101593.25;5069573;27;45467;-66
2022/12/05 10:41:52;;;;;;;;;45.75;35.75;;;;;5.28;69.41;101590.72;5061920;27;45641;-67
2022/12/05 10:44:18;;;;;;;;;53.75;41.00;;;;;5.29;70.06;101598.56;5093650;27;45514;-67
2022/12/05 10:46:44;;;;;;;;;51.50;40.50;;;;;5.18;69.67;101575.63;5065141;27;45564;-66
2022/12/05 10:49:10;;;;;;;;;49.50;37.50;;;;;5.28;69.99;101591.59;5073602;27;45589;-66
2022/12/05 10:51:37;;;;;;;;;56.25;43.50;;;;;5.19;69.20;101601.63;5075612;28;48006;-67
2022/12/05 10:54:22;;;;;;;;;51.50;42.25;;;;;4.97;69.61;101570.50;5098603;27;45685;-67
2022/12/05 10:56:50;;;;;;;;;54.25;42.50;;;;;4.87;71.05;101593.50;5062268;27;45409;-66
2022/12/05 10:59:18;;;;;;;;;49.50;40.00;;;;;4.75;71.46;101590.44;5064822;28;45438;-67
2022/12/05 11:01:48;;;;;;;;;52.75;41.00;;;;;4.75;70.43;101590.44;5071445;28;45408;-67
2022/12/05 11:04:24;;;;;;;;;53.50;41.75;;;;;4.79;71.63;101592.34;5065244;28;45544;-66
2022/12/05 11:07:00;;;;;;;;;51.00;41.50;;;;;4.84;70.30;101605.47;5057839;27;45737;-66
2022/12/05 11:09:31;;;;;;;;;46.25;39.00;;;;;4.78;70.83;101594.88;5075332;27;46007;-68
2022/12/05 11:12:27;;;;;;;;;52.50;41.50;;;;;4.83;70.84;101603.72;5074432;27;45538;-67
2022/12/05 11:14:55;;;;;;;;;46.75;39.25;;;;;4.91;70.12;101597.09;5063507;28;45709;-66
2022/12/05 11:17:25;;;;;;;;;42.00;37.00;;;;;5.02;70.08;101589.72;5060813;27;45578;-66
2022/12/05 11:19:50;;;;;;;;;54.75;39.25;;;;;4.94;71.42;101589.44;5076030;27;45590;-66
2022/12/05 11:22:16;;;;;;;;;48.75;37.25;;;;;4.97;70.35;101589.56;5069597;28;46828;-67
2022/12/05 11:24:42;;;;;;;;;49.50;39.00;;;;;5.12;69.34;101604.81;5067432;27;45777;-67
2022/12/05 11:27:35;;;;;;;;;45.50;36.25;;;;;5.15;69.66;101596.25;5063115;27;45815;-67
2022/12/05 11:30:17;;;;;;;;;45.00;37.00;;;;;5.21;70.25;101588.72;5066671;27;45525;-67
2022/12/05 11:32:43;;;;;;;;;49.25;37.25;;;;;5.36;68.49;101598.78;5064020;27;46901;-66
2022/12/05 11:35:12;;;;;;;;;47.75;38.50;;;;;5.38;68.85;101600.59;5063061;28;45582;-68
2022/12/05 11:37:55;;;;;;;;;47.75;36.75;;;;;5.43;68.00;101604.25;5088206;27;45489;-66